Time;durP1;ratioP1;P1;durP2;ratioP2;P2;SDS_P1;SDS_P2;PMS_P1;PMS_P2;Temp;Humidity;BMP_temperature;BMP_pressure;BME280_temperature;BME280_humidity;BME280_pressure;Samples;Min_cycle;Max_cycle;Signal;HPM_P1;HPM_P2
2021/12/17 00:05:03;;;;;;;4.35;3.10;;;;;;;3.16;77.79;98906.88;4975898;28;20071;-85
2021/12/17 00:07:35;;;;;;;3.53;2.97;;;;;;;3.13;77.35;98910.28;4976844;28;20487;-85
2021/12/17 00:10:08;;;;;;;3.15;2.83;;;;;;;3.02;77.35;98917.84;4978227;28;20058;-86
2021/12/17 00:12:35;;;;;;;3.15;2.90;;;;;;;3.02;76.93;98930.75;4977210;28;20506;-84
2021/12/17 00:15:03;;;;;;;3.67;3.00;;;;;;;2.95;77.14;98928.91;4976832;28;20057;-83
2021/12/17 00:17:35;;;;;;;4.15;2.72;;;;;;;2.82;77.78;98914.03;4976808;28;20085;-86
2021/12/17 00:53:24;;;;;;;6.78;3.50;;;;;;;2.78;78.66;98949.19;4996211;28;20054;-85
2021/12/17 00:55:52;;;;;;;4.20;3.20;;;;;;;2.74;78.99;98946.53;4996130;28;20145;-84
2021/12/17 00:58:19;;;;;;;5.28;3.63;;;;;;;2.60;78.95;98923.94;5011538;28;20118;-85
2021/12/17 01:00:47;;;;;;;4.05;3.55;;;;;;;2.74;78.75;98962.00;5004029;28;20110;-81
2021/12/17 01:03:14;;;;;;;6.40;4.15;;;;;;;2.59;78.93;98934.19;4997204;28;20078;-81
2021/12/17 01:05:42;;;;;;;4.85;3.60;;;;;;;2.61;79.06;98948.00;5024525;28;20054;-82
2021/12/17 01:08:10;;;;;;;8.45;4.15;;;;;;;2.60;79.36;98961.72;4993585;28;20055;-81
2021/12/17 01:10:46;;;;;;;5.63;3.75;;;;;;;2.55;79.34;98963.34;5014246;28;20082;-82
2021/12/17 01:13:40;;;;;;;4.63;3.53;;;;;;;2.50;79.80;98970.97;4981525;28;20070;-82
2021/12/17 01:16:43;;;;;;;4.82;3.47;;;;;;;2.38;79.91;98958.66;4915008;29;20146;-83
2021/12/17 01:19:45;;;;;;;7.05;4.82;;;;;;;2.41;79.57;98969.06;4980888;28;20055;-85
2021/12/17 01:25:48;;;;;;;8.80;4.93;;;;;;;2.35;79.72;98970.66;4915185;29;20079;-84
2021/12/17 01:43:48;;;;;;;8.68;4.97;;;;;;;1.92;80.37;98986.00;5001670;28;20048;-82
2021/12/17 01:46:24;;;;;;;6.30;4.55;;;;;;;1.94;80.17;98986.91;4990671;28;20057;-81
2021/12/17 01:49:29;;;;;;;7.90;4.63;;;;;;;1.92;79.99;98983.41;5023606;28;20519;-82
2021/12/17 02:00:18;;;;;;;6.18;4.70;;;;;;;1.97;80.04;98989.53;4995401;28;20109;-83
2021/12/17 02:02:55;;;;;;;6.57;4.55;;;;;;;1.87;79.85;98979.84;4993856;28;20121;-82
2021/12/17 02:05:33;;;;;;;7.40;4.70;;;;;;;1.97;79.98;98998.97;4993360;28;20051;-84
2021/12/17 02:08:01;;;;;;;7.07;4.60;;;;;;;2.01;79.94;98993.91;4994587;28;20050;-84
2021/12/17 02:32:49;;;;;;;7.50;4.68;;;;;;;1.74;80.45;98991.56;4993041;28;20058;-85
2021/12/17 02:37:47;;;;;;;7.07;4.20;;;;;;;1.87;80.21;99015.03;4993834;28;20101;-83
2021/12/17 02:46:25;;;;;;;5.60;4.38;;;;;;;1.88;80.55;99015.06;4978401;28;20473;-84
2021/12/17 02:48:54;;;;;;;7.45;4.50;;;;;;;1.94;80.39;99017.81;4992267;28;20058;-83
2021/12/17 02:51:22;;;;;;;8.05;4.38;;;;;;;1.97;80.46;99009.28;5024977;28;20101;-82
2021/12/17 02:53:50;;;;;;;12.80;5.80;;;;;;;2.03;80.10;99017.16;4993597;28;20058;-84
2021/12/17 02:56:17;;;;;;;6.50;4.38;;;;;;;2.03;80.23;99017.16;4993401;28;20415;-84
2021/12/17 02:58:45;;;;;;;19.00;7.82;;;;;;;2.05;80.09;99025.78;4993882;28;20525;-85
2021/12/17 03:01:15;;;;;;;10.43;4.90;;;;;;;2.09;79.87;99017.31;4993853;28;20058;-83
2021/12/17 03:03:50;;;;;;;7.03;4.63;;;;;;;2.07;80.11;99010.38;4976978;28;20050;-83
2021/12/17 03:06:19;;;;;;;7.65;4.32;;;;;;;2.17;80.00;99026.09;4976346;28;20057;-85
2021/12/17 03:08:47;;;;;;;9.30;4.65;;;;;;;2.16;79.82;99021.75;4992979;28;20499;-84
2021/12/17 03:11:17;;;;;;;8.40;4.63;;;;;;;2.16;79.52;99018.31;5008886;28;20145;-85
2021/12/17 03:13:46;;;;;;;27.80;10.55;;;;;;;2.17;79.66;99026.09;5025273;28;20057;-82
2021/12/17 03:16:27;;;;;;;21.58;9.63;;;;;;;2.27;79.90;99026.31;4994007;28;20055;-84
2021/12/17 03:19:04;;;;;;;37.03;17.33;;;;;;;2.35;80.06;99035.94;5009048;28;20047;-84
2021/12/17 03:24:20;;;;;;;22.08;11.43;;;;;;;2.48;79.38;99036.22;4992512;28;20166;-83
2021/12/17 03:26:47;;;;;;;37.92;19.60;;;;;;;2.40;78.72;99016.28;5028125;28;20054;-84
2021/12/17 03:29:15;;;;;;;40.40;21.88;;;;;;;2.44;79.12;99028.41;4989138;28;20518;-85
2021/12/17 03:31:46;;;;;;;58.53;31.08;;;;;;;2.43;78.93;99039.56;4996812;28;20054;-83
2021/12/17 03:34:18;;;;;;;48.05;25.80;;;;;;;2.47;78.91;99030.19;4997166;28;20081;-84
2021/12/17 03:36:54;;;;;;;31.58;19.85;;;;;;;2.49;78.71;99033.66;5012229;28;20066;-83
2021/12/17 03:39:26;;;;;;;13.75;9.32;;;;;;;2.49;78.69;99025.06;4963780;28;20062;-84
2021/12/17 03:41:56;;;;;;;14.50;7.25;;;;;;;2.46;78.90;99026.75;4979460;28;20058;-84
2021/12/17 03:44:32;;;;;;;9.07;5.85;;;;;;;2.46;78.50;99019.00;4979545;28;20100;-84
2021/12/17 03:47:00;;;;;;;11.05;6.13;;;;;;;2.45;78.56;99031.84;4996829;28;20054;-85
2021/12/17 03:49:36;;;;;;;8.23;5.00;;;;;;;2.31;78.27;99016.09;4979022;28;20065;-85
2021/12/17 03:52:05;;;;;;;9.27;5.10;;;;;;;2.27;78.33;99032.31;4962876;28;20466;-84
2021/12/17 03:54:36;;;;;;;8.40;5.43;;;;;;;2.20;78.53;99033.88;4979386;28;20060;-82
2021/12/17 03:57:09;;;;;;;6.20;4.40;;;;;;;2.23;78.26;99031.38;4979270;28;20084;-86
2021/12/17 03:59:40;;;;;;;7.97;4.65;;;;;;;2.15;78.41;99029.44;4979044;28;20058;-85
2021/12/17 04:02:08;;;;;;;7.20;4.90;;;;;;;1.99;78.49;99016.19;4979386;28;20066;-84
2021/12/17 04:04:37;;;;;;;7.93;4.50;;;;;;;2.01;78.70;99034.28;4978831;28;20058;-80
2021/12/17 04:07:23;;;;;;;6.93;4.55;;;;;;;1.88;78.90;99027.09;4996417;28;20519;-84
2021/12/17 04:10:19;;;;;;;6.28;4.47;;;;;;;1.69;79.26;99021.47;4967457;28;20584;-83
2021/12/17 04:12:59;;;;;;;7.50;5.00;;;;;;;1.62;79.68;99017.00;4993790;28;20061;-83
2021/12/17 04:15:37;;;;;;;8.63;4.68;;;;;;;1.51;79.48;99009.00;4986055;28;20141;-84
2021/12/17 04:18:07;;;;;;;7.28;5.13;;;;;;;1.47;79.80;99020.06;4977588;28;20073;-83
2021/12/17 04:20:35;;;;;;;6.47;4.28;;;;;;;1.39;80.34;99011.25;4988561;28;20062;-78
2021/12/17 04:23:02;;;;;;;6.65;4.50;;;;;;;1.51;79.94;99024.44;5010688;28;20054;-78
2021/12/17 04:25:30;;;;;;;7.85;5.13;;;;;;;1.45;80.27;99031.13;5020696;28;20032;-80
2021/12/17 04:27:58;;;;;;;10.10;5.40;;;;;;;1.43;80.16;99025.94;5024891;28;20057;-81
2021/12/17 04:30:28;;;;;;;8.05;5.07;;;;;;;1.40;80.13;99025.88;4994076;28;20047;-84
2021/12/17 04:32:57;;;;;;;6.57;5.22;;;;;;;1.27;80.31;99016.06;4979372;28;20068;-81
2021/12/17 04:35:25;;;;;;;7.35;5.05;;;;;;;1.30;80.26;99036.75;4978556;28;20073;-82
2021/12/17 04:37:54;;;;;;;9.48;5.47;;;;;;;1.30;80.57;99057.34;4976981;28;20054;-82
2021/12/17 04:40:24;;;;;;;7.78;5.57;;;;;;;1.25;80.68;99044.34;4978198;28;20050;-83
2021/12/17 04:45:40;;;;;;;9.60;5.82;;;;;;;1.33;80.66;99063.41;4976692;28;20081;-84
2021/12/17 04:59:27;;;;;;;11.48;7.00;;;;;;;1.78;79.88;99074.91;4976387;28;20078;-85
2021/12/17 05:02:01;;;;;;;11.13;7.40;;;;;;;1.90;79.55;99082.09;4976484;28;20109;-84
2021/12/17 05:04:32;;;;;;;11.38;7.22;;;;;;;2.02;79.23;99082.38;5006107;28;20141;-85
2021/12/17 05:07:00;;;;;;;11.90;7.28;;;;;;;2.11;79.19;99087.78;4976511;28;20050;-83
2021/12/17 05:09:38;;;;;;;10.85;7.22;;;;;;;2.13;79.09;99085.22;4959554;28;20077;-83
2021/12/17 05:20:33;;;;;;;16.38;7.95;;;;;;;2.43;78.45;99105.72;4974817;28;20457;-82
2021/12/17 05:23:01;;;;;;;12.68;7.43;;;;;;;2.48;78.12;99108.41;4976215;28;20193;-82
2021/12/17 05:25:29;;;;;;;12.07;7.18;;;;;;;2.50;77.47;99107.63;4975124;28;20050;-84
2021/12/17 05:28:00;;;;;;;11.88;7.13;;;;;;;2.54;78.12;99111.13;4975575;28;20567;-84
2021/12/17 05:30:32;;;;;;;12.93;7.43;;;;;;;2.52;77.98;99107.63;4975631;28;20050;-83
2021/12/17 05:33:01;;;;;;;9.48;6.38;;;;;;;2.45;77.12;99112.66;4975489;28;20093;-82
2021/12/17 05:35:29;;;;;;;11.37;6.53;;;;;;;2.39;77.42;99117.66;4983058;28;20056;-83
2021/12/17 05:37:59;;;;;;;11.55;6.45;;;;;;;2.40;77.14;99129.72;4994046;28;20097;-84
2021/12/17 05:40:27;;;;;;;9.75;6.22;;;;;;;2.41;77.82;99146.03;4992847;28;20062;-85
2021/12/17 05:42:59;;;;;;;8.52;5.57;;;;;;;2.39;76.85;99146.03;4958675;28;20050;-83
2021/12/17 05:45:48;;;;;;;7.72;5.75;;;;;;;2.25;77.14;99148.25;4960380;28;20046;-83
2021/12/17 05:48:20;;;;;;;6.25;4.15;;;;;;;2.20;76.57;99133.53;4960510;28;20149;-83
2021/12/17 05:50:52;;;;;;;5.63;3.47;;;;;;;2.24;76.40;99149.09;4975406;28;20050;-85
2021/12/17 05:53:20;;;;;;;5.43;3.83;;;;;;;2.11;76.41;99149.63;4973110;28;20051;-84
2021/12/17 05:55:49;;;;;;;5.03;3.40;;;;;;;2.04;76.66;99164.03;4975192;28;20566;-83
2021/12/17 05:58:17;;;;;;;5.10;3.25;;;;;;;2.03;76.31;99151.97;4953088;28;20056;-86
2021/12/17 06:00:49;;;;;;;3.58;3.13;;;;;;;1.98;76.44;99162.97;4993515;28;20128;-83
2021/12/17 06:03:38;;;;;;;5.95;3.22;;;;;;;1.90;76.36;99160.22;4999826;28;20088;-84
2021/12/17 06:06:12;;;;;;;6.68;3.70;;;;;;;1.97;76.38;99179.28;4989539;28;20061;-84
2021/12/17 06:08:40;;;;;;;7.35;3.67;;;;;;;1.83;76.18;99145.44;4982981;28;20054;-86
2021/12/17 06:11:07;;;;;;;4.95;3.97;;;;;;;2.03;76.38;99184.59;5008392;28;20046;-84
2021/12/17 06:13:36;;;;;;;6.13;3.75;;;;;;;2.11;76.08;99177.97;5014719;28;20089;-84
2021/12/17 06:16:03;;;;;;;4.90;3.20;;;;;;;2.13;75.97;99176.28;4976369;28;20043;-85
2021/12/17 06:18:31;;;;;;;5.63;3.42;;;;;;;2.12;75.95;99171.09;4950625;28;20050;-84
2021/12/17 06:20:59;;;;;;;4.10;3.15;;;;;;;2.23;75.24;99173.09;4978820;28;20050;-84
2021/12/17 06:23:27;;;;;;;4.03;3.05;;;;;;;2.28;75.30;99183.56;5004817;28;20061;-83
2021/12/17 06:25:55;;;;;;;5.57;3.22;;;;;;;2.26;74.89;99180.06;4995936;28;20051;-85
2021/12/17 06:28:22;;;;;;;4.65;3.40;;;;;;;2.28;75.25;99186.13;4994427;28;20042;-84
2021/12/17 06:30:54;;;;;;;4.40;2.80;;;;;;;2.36;74.96;99194.03;4988078;28;20057;-84
2021/12/17 06:33:27;;;;;;;5.90;3.42;;;;;;;2.39;74.72;99202.75;4981452;28;20050;-84
2021/12/17 06:35:54;;;;;;;3.65;3.13;;;;;;;2.37;74.66;99195.81;4993057;28;20058;-85
2021/12/17 06:38:24;;;;;;;7.68;3.90;;;;;;;2.35;74.67;99190.59;4991647;28;20057;-84
2021/12/17 06:40:53;;;;;;;5.07;3.10;;;;;;;2.34;74.54;99193.13;5010325;28;20061;-85
2021/12/17 06:43:28;;;;;;;4.55;3.20;;;;;;;2.31;74.64;99190.50;4988776;28;20050;-86
2021/12/17 06:46:14;;;;;;;7.47;4.30;;;;;;;2.34;74.52;99198.28;4976353;28;20104;-84
2021/12/17 06:48:43;;;;;;;7.70;3.85;;;;;;;2.39;74.49;99205.31;4975995;28;20108;-85
2021/12/17 07:24:25;;;;;;;13.95;7.95;;;;;;;2.62;73.39;99244.59;4957822;28;20415;-83
2021/12/17 07:40:26;;;;;;;10.73;5.10;;;;;;;2.46;73.31;99257.91;4995633;28;20082;-84
2021/12/17 07:42:54;;;;;;;8.93;4.90;;;;;;;2.27;73.40;99228.19;4996543;28;20058;-82
2021/12/17 07:45:31;;;;;;;10.27;4.53;;;;;;;2.42;73.13;99264.66;5028508;28;20548;-85
2021/12/17 07:48:04;;;;;;;8.63;4.15;;;;;;;2.43;73.21;99260.38;5028817;28;20064;-83
2021/12/17 07:50:35;;;;;;;4.82;3.50;;;;;;;2.35;72.77;99249.03;5028547;28;20054;-85
2021/12/17 07:53:10;;;;;;;4.55;3.55;;;;;;;2.34;72.68;99261.00;5028299;28;20137;-84
2021/12/17 07:55:47;;;;;;;6.10;3.20;;;;;;;2.37;73.13;99255.94;5027756;28;20109;-83
2021/12/17 07:58:20;;;;;;;5.43;3.30;;;;;;;2.30;72.51;99241.13;4994650;28;20529;-83
2021/12/17 08:00:47;;;;;;;5.45;3.17;;;;;;;2.36;72.38;99254.19;5027889;28;20486;-83
2021/12/17 08:03:15;;;;;;;2.95;2.63;;;;;;;2.17;71.63;99247.69;4978086;28;20058;-81
2021/12/17 08:05:59;;;;;;;3.67;2.60;;;;;;;2.24;71.92;99257.34;5029609;28;20047;-81
2021/12/17 08:08:28;;;;;;;2.90;2.60;;;;;;;2.32;71.67;99269.53;4995000;28;20061;-81
2021/12/17 08:11:27;;;;;;;2.88;2.50;;;;;;;2.31;72.00;99249.78;4987969;28;20050;-82
2021/12/17 08:13:56;;;;;;;5.53;2.80;;;;;;;2.51;71.79;99253.72;4995121;28;20080;-82
2021/12/17 08:23:08;;;;;;;4.38;2.88;;;;;;;2.54;71.37;99264.13;5000670;28;20050;-81
2021/12/17 08:27:23;;;;;;;4.43;3.45;;;;;;;2.77;71.12;99251.78;4992782;28;20058;-83
2021/12/17 08:30:40;;;;;;;4.18;2.80;;;;;;;2.82;70.82;99247.66;5030392;28;20458;-83
2021/12/17 08:32:52;;;;;;;4.20;3.17;;;;;;;2.92;70.92;99253.03;4991496;28;20059;-83
2021/12/17 08:35:20;;;;;;;4.68;3.30;;;;;;;2.88;70.42;99244.31;5027090;28;20061;-84
2021/12/17 08:37:49;;;;;;;4.90;3.33;;;;;;;2.73;71.06;99252.59;4994428;28;20157;-85
2021/12/17 08:40:17;;;;;;;4.05;3.20;;;;;;;2.60;71.21;99245.34;4995066;28;20054;-85
2021/12/17 08:42:49;;;;;;;5.50;3.60;;;;;;;2.73;71.44;99254.28;5011710;28;20069;-85
2021/12/17 08:45:17;;;;;;;5.55;3.30;;;;;;;2.79;70.92;99257.00;5027487;28;20050;-85
2021/12/17 08:48:00;;;;;;;4.10;3.33;;;;;;;2.75;71.29;99266.38;4994169;28;20073;-84
2021/12/17 08:50:45;;;;;;;5.55;3.53;;;;;;;2.61;71.61;99244.53;5026993;28;20422;-84
2021/12/17 08:53:14;;;;;;;7.03;3.92;;;;;;;2.81;71.39;99263.94;4978863;28;20470;-83
2021/12/17 08:55:42;;;;;;;6.53;3.83;;;;;;;2.87;71.35;99258.94;4994114;28;20087;-83
2021/12/17 08:58:13;;;;;;;3.53;2.83;;;;;;;2.90;70.57;99260.72;4979329;28;20085;-82
2021/12/17 09:00:44;;;;;;;4.88;3.33;;;;;;;2.85;71.12;99268.34;5029418;28;20165;-83
2021/12/17 09:03:18;;;;;;;4.82;3.42;;;;;;;3.00;70.64;99274.72;4997215;28;20458;-86
2021/12/17 09:06:04;;;;;;;4.55;3.30;;;;;;;2.84;70.39;99239.94;5001744;28;20052;-83
2021/12/17 09:08:38;;;;;;;7.82;4.05;;;;;;;3.04;70.19;99271.38;5027764;28;20491;-83
2021/12/17 09:11:09;;;;;;;6.28;4.10;;;;;;;3.03;70.50;99270.53;5017870;28;20438;-85
2021/12/17 09:13:56;;;;;;;8.35;4.28;;;;;;;2.90;70.67;99263.28;5001722;28;20149;-86
2021/12/17 09:16:27;;;;;;;6.40;4.20;;;;;;;2.94;70.98;99274.56;5027701;28;20056;-82
2021/12/17 09:18:55;;;;;;;4.05;3.17;;;;;;;2.86;70.32;99254.63;4994337;28;20146;-85
2021/12/17 09:21:31;;;;;;;6.47;4.07;;;;;;;2.91;70.66;99259.03;4995151;28;20064;-86
2021/12/17 09:24:14;;;;;;;7.57;3.67;;;;;;;3.15;71.01;99277.66;4993630;28;20426;-84
2021/12/17 09:27:00;;;;;;;5.53;3.40;;;;;;;3.23;70.00;99268.41;4994632;28;20414;-85
2021/12/17 09:29:37;;;;;;;4.72;3.10;;;;;;;3.31;70.06;99271.13;5032581;28;20097;-84
2021/12/17 09:32:04;;;;;;;5.03;2.92;;;;;;;3.47;69.59;99272.38;5008620;28;20050;-84
2021/12/17 09:34:31;;;;;;;5.85;2.97;;;;;;;3.60;69.10;99276.97;5006322;28;20054;-82
2021/12/17 09:36:58;;;;;;;5.18;2.95;;;;;;;3.74;68.76;99282.44;5019253;28;20054;-82
2021/12/17 09:39:25;;;;;;;6.45;3.40;;;;;;;3.68;68.32;99272.84;5005616;28;20054;-84
2021/12/17 09:41:53;;;;;;;4.13;2.95;;;;;;;3.62;68.94;99274.44;5036177;28;20054;-86
2021/12/17 09:44:20;;;;;;;5.30;3.42;;;;;;;3.62;68.79;99269.25;4996253;28;20192;-85
2021/12/17 09:46:48;;;;;;;4.65;3.28;;;;;;;3.68;68.50;99272.00;5027201;28;20152;-84
2021/12/17 09:49:18;;;;;;;7.82;4.38;;;;;;;3.75;68.82;99266.09;5009226;28;20085;-86
2021/12/17 09:51:47;;;;;;;5.60;3.70;;;;;;;3.69;68.77;99266.84;5015833;28;20069;-83
2021/12/17 09:54:15;;;;;;;4.68;3.03;;;;;;;3.79;68.41;99259.28;5017173;28;20149;-84
2021/12/17 09:56:43;;;;;;;5.65;3.03;;;;;;;3.88;68.65;99273.25;5014534;28;20053;-87
2021/12/17 09:59:12;;;;;;;4.78;3.45;;;;;;;3.81;68.71;99268.81;5014683;28;20498;-82
2021/12/17 10:01:42;;;;;;;3.38;2.90;;;;;;;3.73;68.42;99267.78;5014483;28;20410;-83
2021/12/17 10:04:19;;;;;;;5.32;3.28;;;;;;;3.54;68.69;99270.81;4996733;28;20513;-83
2021/12/17 10:06:48;;;;;;;4.72;2.90;;;;;;;3.51;68.82;99279.38;5016942;28;20053;-82
2021/12/17 10:09:16;;;;;;;6.07;3.10;;;;;;;3.52;68.79;99280.22;4990399;28;20485;-82
2021/12/17 10:12:06;;;;;;;5.07;3.25;;;;;;;3.56;69.10;99285.50;5038555;28;20313;-81
2021/12/17 10:14:33;;;;;;;5.55;3.33;;;;;;;3.57;69.18;99291.53;5027855;28;20054;-80
2021/12/17 10:17:12;;;;;;;6.20;3.55;;;;;;;3.36;69.21;99273.84;5006727;28;20061;-83
2021/12/17 10:19:44;;;;;;;8.10;4.07;;;;;;;3.32;69.20;99287.53;5003730;28;20232;-82
2021/12/17 10:22:13;;;;;;;6.07;3.70;;;;;;;3.35;69.75;99288.44;4997811;28;20066;-79
2021/12/17 10:25:07;;;;;;;6.57;3.88;;;;;;;3.27;69.94;99284.84;4996626;28;20301;-84
2021/12/17 10:27:36;;;;;;;4.88;3.65;;;;;;;3.19;70.24;99274.31;4987326;28;20108;-83
2021/12/17 10:30:21;;;;;;;6.82;3.70;;;;;;;3.40;69.67;99299.78;5009360;28;20557;-84
2021/12/17 10:32:52;;;;;;;4.28;3.45;;;;;;;3.42;70.31;99302.38;4993894;28;20054;-84
2021/12/17 10:35:24;;;;;;;7.30;4.30;;;;;;;3.40;70.01;99301.47;4995739;28;20553;-83
2021/12/17 10:38:03;;;;;;;8.25;4.88;;;;;;;3.39;70.07;99308.34;4964801;28;20061;-85
2021/12/17 10:40:36;;;;;;;9.30;5.00;;;;;;;3.40;70.26;99299.78;4998257;28;20058;-84
2021/12/17 10:43:31;;;;;;;;;;;;;;;3.18;70.83;99305.25;4999226;28;20085;-85
2021/12/17 10:46:09;;;;;;;9.98;5.88;;;;;;;3.29;70.22;99296.03;4965097;28;20377;-87
2021/12/17 10:54:16;;;;;;;9.52;5.38;;;;;;;3.57;69.89;99297.59;4998448;28;20058;-86
2021/12/17 10:56:51;;;;;;;8.10;5.30;;;;;;;3.75;69.58;99315.19;5000221;28;20061;-86
2021/12/17 10:59:24;;;;;;;7.65;5.32;;;;;;;3.73;69.55;99311.69;5002538;28;20078;-86
2021/12/17 11:02:00;;;;;;;10.85;5.40;;;;;;;3.60;69.01;99279.56;5015539;28;20074;-83
2021/12/17 11:04:36;;;;;;;10.57;6.88;;;;;;;3.72;69.63;99315.09;5012934;28;20047;-85
2021/12/17 11:07:16;;;;;;;13.55;5.65;;;;;;;3.62;69.52;99318.34;5024007;28;20513;-84
2021/12/17 11:09:54;;;;;;;12.10;6.05;;;;;;;3.48;69.94;99321.50;4997836;28;20069;-84
2021/12/17 11:12:40;;;;;;;10.68;6.07;;;;;;;3.42;70.22;99329.09;4979822;28;20050;-84
2021/12/17 11:15:14;;;;;;;9.93;5.95;;;;;;;3.37;69.84;99324.63;4979517;28;20064;-82
2021/12/17 11:17:44;;;;;;;10.35;5.63;;;;;;;3.34;70.43;99328.03;5016568;28;20118;-84
2021/12/17 11:20:13;;;;;;;7.60;4.75;;;;;;;3.12;70.47;99302.53;5001023;28;20058;-81
2021/12/17 11:22:42;;;;;;;8.85;5.25;;;;;;;3.05;70.13;99298.91;5015203;28;20057;-81
2021/12/17 11:25:10;;;;;;;8.63;5.10;;;;;;;3.12;70.48;99318.91;4980748;28;20054;-83
2021/12/17 11:27:37;;;;;;;10.25;5.05;;;;;;;3.17;70.94;99334.50;4997005;28;20054;-82
2021/12/17 11:30:08;;;;;;;9.25;5.55;;;;;;;3.11;70.90;99335.22;4999760;28;20124;-81
2021/12/17 11:32:35;;;;;;;8.95;5.50;;;;;;;2.99;71.05;99322.88;4981407;28;20046;-82
2021/12/17 11:35:05;;;;;;;8.18;5.95;;;;;;;3.01;71.25;99339.28;5011590;28;20145;-84
2021/12/17 11:37:32;;;;;;;9.13;5.40;;;;;;;2.96;71.01;99347.72;4996796;28;20046;-82
2021/12/17 11:40:08;;;;;;;11.43;6.10;;;;;;;2.87;72.21;99340.63;4979172;28;20533;-81
2021/12/17 11:42:54;;;;;;;8.35;4.95;;;;;;;2.70;71.95;99336.72;4979185;28;20068;-84
2021/12/17 11:45:28;;;;;;;8.77;5.35;;;;;;;2.60;72.06;99328.75;5011913;28;20062;-83
2021/12/17 11:48:10;;;;;;;10.35;5.40;;;;;;;2.62;72.27;99342.56;4994809;28;20069;-83
2021/12/17 11:50:40;;;;;;;8.73;5.80;;;;;;;2.63;72.75;99351.19;4997233;28;20050;-82
2021/12/17 11:53:23;;;;;;;10.57;6.55;;;;;;;2.52;72.45;99345.72;4996301;28;20050;-84
2021/12/17 11:56:02;;;;;;;11.02;6.25;;;;;;;2.41;73.04;99331.66;4996734;28;20054;-82
2021/12/17 11:58:51;;;;;;;10.00;6.43;;;;;;;2.44;73.27;99339.47;4996505;28;20085;-83
2021/12/17 12:02:03;;;;;;;11.68;6.22;;;;;;;2.39;73.47;99352.25;4980476;28;20137;-85
2021/12/17 12:04:33;;;;;;;12.15;6.22;;;;;;;2.41;73.73;99349.69;4917187;29;20048;-84
2021/12/17 12:07:03;;;;;;;11.88;6.20;;;;;;;2.39;74.16;99353.97;4917497;29;20086;-84
2021/12/17 12:10:03;;;;;;;10.27;6.15;;;;;;;2.37;73.63;99351.34;4945398;28;20085;-83
2021/12/17 12:12:53;;;;;;;10.07;5.80;;;;;;;2.35;73.71;99357.28;4996509;28;20065;-83
2021/12/17 12:15:21;;;;;;;8.68;5.50;;;;;;;2.30;73.99;99362.28;4996181;28;20121;-82
2021/12/17 12:17:57;;;;;;;9.55;5.65;;;;;;;2.27;74.04;99364.78;4996469;28;20081;-85
2021/12/17 12:20:58;;;;;;;9.77;5.80;;;;;;;2.20;74.22;99360.28;5000542;28;20054;-82
2021/12/17 12:23:32;;;;;;;7.50;5.38;;;;;;;2.16;74.39;99367.06;4951677;28;20054;-82
2021/12/17 12:26:08;;;;;;;8.65;5.40;;;;;;;2.20;74.39;99378.34;5011699;28;20050;-82
2021/12/17 12:28:45;;;;;;;10.20;5.32;;;;;;;2.15;74.49;99370.47;5011101;28;20136;-83
2021/12/17 12:31:25;;;;;;;13.25;6.30;;;;;;;2.13;74.71;99376.38;5011241;28;20062;-85
2021/12/17 12:34:00;;;;;;;11.05;5.82;;;;;;;2.14;74.81;99368.72;5013207;28;20145;-84
2021/12/17 12:36:43;;;;;;;9.35;5.68;;;;;;;2.15;74.61;99378.19;4987338;28;20145;-84
2021/12/17 12:39:27;;;;;;;8.75;5.20;;;;;;;2.15;74.59;99382.47;4995727;28;20073;-84
2021/12/17 12:42:03;;;;;;;8.00;5.28;;;;;;;2.13;74.59;99381.53;5013907;28;20085;-81
2021/12/17 12:44:40;;;;;;;9.30;5.10;;;;;;;2.09;74.40;99388.31;5000523;28;20058;-82
2021/12/17 12:47:09;;;;;;;8.02;4.57;;;;;;;2.08;74.55;99386.56;5012463;28;20085;-80
2021/12/17 12:49:56;;;;;;;8.48;4.72;;;;;;;2.03;74.32;99401.03;5025015;28;20054;-83
2021/12/17 12:52:33;;;;;;;10.80;5.07;;;;;;;2.04;74.16;99400.19;4991594;28;20526;-79
2021/12/17 12:55:10;;;;;;;10.07;5.03;;;;;;;1.96;74.18;99401.69;4989887;28;20515;-79
2021/12/17 12:57:44;;;;;;;9.38;5.07;;;;;;;1.72;74.25;99373.44;4983946;28;20067;-80
2021/12/17 13:00:17;;;;;;;9.05;5.60;;;;;;;1.85;74.83;99393.63;4990733;28;20542;-80
2021/12/17 13:02:47;;;;;;;13.63;5.70;;;;;;;1.99;74.53;99406.91;4976145;28;20055;-82
2021/12/17 13:05:14;;;;;;;9.32;5.38;;;;;;;1.96;74.05;99402.53;4976243;28;20109;-81
2021/12/17 13:07:50;;;;;;;11.57;7.13;;;;;;;2.03;74.03;99416.47;4957791;28;20061;-81
2021/12/17 13:10:21;;;;;;;10.77;6.05;;;;;;;1.98;73.20;99407.72;4975857;28;20058;-83
2021/12/17 13:13:15;;;;;;;;;;;;;;;1.88;73.76;99409.16;4976786;28;20058;-83
2021/12/17 13:15:50;;;;;;;13.35;7.70;;;;;;;1.89;73.55;99416.03;4998390;28;19947;-83
2021/12/17 13:24:11;;;;;;;7.45;5.05;;;;;;;1.82;73.12;99417.56;5013611;28;20046;-81
2021/12/17 13:26:56;;;;;;;9.68;5.00;;;;;;;1.79;72.91;99430.34;5029222;28;20053;-81
2021/12/17 13:29:33;;;;;;;11.30;5.15;;;;;;;1.79;73.30;99430.34;5014110;28;20136;-80
2021/12/17 13:32:09;;;;;;;9.10;5.70;;;;;;;1.79;73.08;99429.47;5013798;28;20235;-82
2021/12/17 13:34:40;;;;;;;10.38;5.10;;;;;;;1.80;73.09;99431.22;5013947;28;20085;-82
2021/12/17 13:37:11;;;;;;;6.45;3.75;;;;;;;1.83;72.58;99429.63;5013770;28;20096;-81
2021/12/17 13:39:57;;;;;;;6.85;3.97;;;;;;;1.78;72.11;99428.59;5014447;28;20050;-81
2021/12/17 13:42:51;;;;;;;5.80;3.72;;;;;;;1.84;72.07;99435.63;5028984;28;20445;-83
2021/12/17 13:45:23;;;;;;;9.02;4.50;;;;;;;1.81;71.89;99451.00;5011889;28;20054;-82
2021/12/17 13:47:54;;;;;;;11.45;5.80;;;;;;;1.82;72.11;99450.16;5013437;28;20049;-80
2021/12/17 13:50:24;;;;;;;8.13;5.07;;;;;;;1.75;71.65;99430.22;5014044;28;20057;-81
2021/12/17 13:52:55;;;;;;;9.47;5.50;;;;;;;1.77;71.76;99425.97;5013175;28;20061;-81
2021/12/17 13:55:27;;;;;;;8.77;5.50;;;;;;;1.88;71.60;99444.34;5013981;28;20058;-83
2021/12/17 13:57:55;;;;;;;12.65;5.30;;;;;;;1.88;71.83;99441.78;5014273;28;20053;-82
2021/12/17 14:00:32;;;;;;;9.70;5.72;;;;;;;1.95;71.59;99454.00;4996646;28;20058;-82
2021/12/17 14:02:59;;;;;;;7.90;5.25;;;;;;;1.83;71.79;99442.50;4996151;28;20053;-82
2021/12/17 14:05:40;;;;;;;14.50;6.78;;;;;;;1.81;71.68;99467.31;5013434;28;20065;-81
2021/12/17 14:08:10;;;;;;;9.65;6.60;;;;;;;1.84;72.29;99463.97;5015707;28;20050;-81
2021/12/17 14:10:38;;;;;;;14.13;6.95;;;;;;;1.71;72.42;99461.84;4996234;28;20477;-82
2021/12/17 14:13:18;;;;;;;10.55;6.00;;;;;;;1.73;72.51;99470.47;5013262;28;20046;-83
2021/12/17 14:16:03;;;;;;;10.18;6.15;;;;;;;1.73;72.80;99473.94;5013363;28;20497;-81
2021/12/17 14:18:30;;;;;;;11.00;7.00;;;;;;;1.76;72.63;99479.16;4995789;28;20050;-80
2021/12/17 14:21:04;;;;;;;6.82;4.88;;;;;;;1.72;72.97;99469.63;5000552;28;20057;-81
2021/12/17 14:23:37;;;;;;;7.97;5.25;;;;;;;1.77;72.90;99473.22;5016565;28;20061;-83
2021/12/17 14:26:07;;;;;;;9.23;5.80;;;;;;;1.78;73.20;99474.94;5013586;28;20524;-81
2021/12/17 14:28:38;;;;;;;8.52;5.68;;;;;;;1.67;73.24;99465.13;5013499;28;20054;-80
2021/12/17 14:31:14;;;;;;;;;;;;;;;1.66;73.24;99479.72;4980033;28;20100;-80
2021/12/17 14:33:51;;;;;;;13.40;7.50;;;;;;;1.70;73.77;99472.94;5013603;28;20020;-82
2021/12/17 14:36:25;;;;;;;15.93;7.45;;;;;;;1.77;73.50;99486.09;5013649;28;20137;-83
2021/12/17 14:39:12;;;;;;;13.02;6.57;;;;;;;1.74;73.42;99483.41;5013027;28;20064;-82
2021/12/17 14:41:49;;;;;;;12.82;6.68;;;;;;;1.76;73.74;99486.88;5013179;28;20057;-81
2021/12/17 14:47:02;;;;;;;11.95;6.57;;;;;;;1.70;74.27;99490.97;5013247;28;20112;-83
2021/12/17 15:03:40;;;;;;;7.50;4.55;;;;;;;1.48;75.11;99484.25;5013112;28;20054;-85
2021/12/17 15:06:11;;;;;;;8.52;4.30;;;;;;;1.46;74.81;99491.91;5015556;28;20141;-82
2021/12/17 15:08:39;;;;;;;8.65;5.28;;;;;;;1.31;75.18;99488.81;5001107;28;20050;-80
2021/12/17 15:11:24;;;;;;;9.40;5.53;;;;;;;1.23;75.19;99481.72;4979437;28;20062;-81
2021/12/17 15:13:52;;;;;;;6.75;4.57;;;;;;;1.34;75.25;99492.38;4995777;28;20100;-83
2021/12/17 15:16:21;;;;;;;8.13;4.70;;;;;;;1.41;75.22;99516.63;5011521;28;20042;-82
2021/12/17 15:18:48;;;;;;;7.82;4.95;;;;;;;1.32;75.16;99488.88;5007539;28;20495;-83
2021/12/17 15:21:15;;;;;;;7.25;4.75;;;;;;;1.46;75.29;99516.78;4994483;28;20490;-82
2021/12/17 15:23:44;;;;;;;5.82;3.65;;;;;;;1.45;74.81;99521.06;5022089;28;20404;-85
2021/12/17 15:26:12;;;;;;;7.18;4.30;;;;;;;1.31;74.92;99507.72;4953948;28;20622;-83
2021/12/17 15:28:43;;;;;;;8.43;4.78;;;;;;;1.28;74.89;99522.16;4992942;28;20051;-81
2021/12/17 15:31:30;;;;;;;5.97;3.63;;;;;;;1.14;75.22;99513.94;4986352;28;20049;-83
2021/12/17 15:33:59;;;;;;;7.95;4.13;;;;;;;1.26;75.40;99531.53;4979275;28;20050;-83